Time;durP1;ratioP1;P1;durP2;ratioP2;P2;SDS_P1;SDS_P2;PMS_P1;PMS_P2;Temp;Humidity;BMP_temperature;BMP_pressure;BME280_temperature;BME280_humidity;BME280_pressure;Samples;Min_cycle;Max_cycle;Signal;HPM_P1;HPM_P2
2021/04/11 00:00:16;;;;;;;7.13;3.60;;;6.20;99.90;;;;;;5025815;28;21191;-64
2021/04/11 00:02:42;;;;;;;6.03;3.70;;;6.20;99.90;;;;;;5019650;28;20713;-66
2021/04/11 00:05:08;;;;;;;5.00;3.80;;;6.20;99.90;;;;;;5023792;28;20622;-64
2021/04/11 00:07:34;;;;;;;5.10;4.30;;;6.20;99.90;;;;;;5020668;28;20363;-63
2021/04/11 00:09:59;;;;;;;5.63;3.80;;;6.20;99.90;;;;;;5023554;28;21135;-62
2021/04/11 00:12:25;;;;;;;6.60;4.87;;;6.30;99.90;;;;;;5020537;28;20228;-63
2021/04/11 00:15:01;;;;;;;6.80;4.20;;;6.30;99.90;;;;;;5021448;28;20221;-64
2021/04/11 00:17:30;;;;;;;6.80;3.60;;;6.30;99.90;;;;;;5024864;28;20566;-63
2021/04/11 00:19:55;;;;;;;6.10;4.60;;;6.30;99.90;;;;;;5025055;28;20614;-64
2021/04/11 00:22:21;;;;;;;8.40;5.10;;;6.30;99.90;;;;;;5016887;28;20644;-64
2021/04/11 00:24:49;;;;;;;8.40;5.27;;;6.30;99.90;;;;;;5020292;28;20599;-65
2021/04/11 00:27:17;;;;;;;6.00;5.20;;;6.30;99.90;;;;;;5026797;28;20250;-64
2021/04/11 00:29:50;;;;;;;8.50;5.23;;;6.30;99.90;;;;;;5021857;28;21145;-64
2021/04/11 00:32:18;;;;;;;6.10;5.50;;;6.30;99.90;;;;;;5017359;28;20677;-64
2021/04/11 00:34:43;;;;;;;6.87;5.47;;;6.30;99.90;;;;;;5014204;28;21276;-64
2021/04/11 00:37:09;;;;;;;10.73;6.00;;;6.40;99.90;;;;;;5024121;28;20596;-62
2021/04/11 00:39:34;;;;;;;8.93;6.70;;;6.40;99.90;;;;;;5014406;28;20265;-64
2021/04/11 00:42:11;;;;;;;10.60;7.23;;;6.40;99.90;;;;;;5024793;28;20215;-64
2021/04/11 00:44:37;;;;;;;10.30;7.73;;;6.40;99.90;;;;;;5025431;28;20294;-64
2021/04/11 00:47:05;;;;;;;11.20;7.60;;;6.40;99.90;;;;;;5025363;28;21069;-63
2021/04/11 00:49:41;;;;;;;10.20;7.20;;;6.40;99.90;;;;;;5017301;28;20657;-63
2021/04/11 00:52:13;;;;;;;10.30;7.67;;;6.50;99.90;;;;;;5028077;28;20645;-64
2021/04/11 00:54:38;;;;;;;11.90;8.60;;;6.50;99.90;;;;;;5021370;28;20654;-62
2021/04/11 00:57:07;;;;;;;12.20;8.50;;;6.60;99.90;;;;;;5016262;28;20615;-63
2021/04/11 00:59:34;;;;;;;13.23;9.23;;;6.60;99.90;;;;;;5021504;28;20273;-63
2021/04/11 01:02:02;;;;;;;13.70;8.83;;;6.60;99.90;;;;;;5020623;28;21194;-63
2021/04/11 01:04:31;;;;;;;15.83;9.23;;;6.60;99.90;;;;;;5017834;28;20619;-63
2021/04/11 01:07:02;;;;;;;13.70;11.40;;;6.70;99.90;;;;;;5015430;28;20665;-64
2021/04/11 01:09:34;;;;;;;12.90;9.97;;;6.60;99.90;;;;;;5019640;28;20758;-63
2021/04/11 01:12:01;;;;;;;12.70;9.03;;;6.70;99.90;;;;;;5021786;28;21054;-63
2021/04/11 01:14:30;;;;;;;14.17;10.57;;;6.70;99.90;;;;;;5014895;28;20676;-64
2021/04/11 01:16:58;;;;;;;13.63;10.40;;;6.70;99.90;;;;;;5018579;28;20628;-65
2021/04/11 01:19:34;;;;;;;14.87;10.23;;;6.80;99.90;;;;;;5020688;28;21188;-63
2021/04/11 01:21:59;;;;;;;16.17;10.70;;;6.80;99.90;;;;;;5015031;28;20793;-64
2021/04/11 01:24:42;;;;;;;13.37;9.37;;;6.80;99.90;;;;;;5020977;28;20666;-64
2021/04/11 01:27:10;;;;;;;15.83;10.53;;;6.80;99.90;;;;;;5024477;28;20215;-64
2021/04/11 01:29:40;;;;;;;14.90;11.10;;;6.80;99.90;;;;;;5020593;28;20627;-66
2021/04/11 01:32:08;;;;;;;14.60;10.83;;;6.90;99.90;;;;;;5010971;28;20991;-63
2021/04/11 01:34:35;;;;;;;17.33;11.53;;;6.90;99.90;;;;;;5022207;28;20683;-63
2021/04/11 01:37:05;;;;;;;19.03;11.83;;;6.90;99.90;;;;;;5020456;28;20628;-65
2021/04/11 01:39:35;;;;;;;16.47;13.00;;;6.90;99.90;;;;;;5026272;28;20651;-62
2021/04/11 01:42:01;;;;;;;20.30;13.40;;;7.00;99.90;;;;;;5017831;28;20674;-64
2021/04/11 01:44:30;;;;;;;19.77;14.30;;;7.00;99.90;;;;;;5014774;28;21104;-64
2021/04/11 01:46:59;;;;;;;18.97;13.60;;;7.00;99.90;;;;;;5016855;28;20648;-63
2021/04/11 01:49:27;;;;;;;19.97;14.20;;;7.00;99.90;;;;;;5015677;28;20665;-63
2021/04/11 01:52:08;;;;;;;18.83;13.73;;;7.00;99.90;;;;;;5015806;28;20738;-65
2021/04/11 01:54:35;;;;;;;23.30;14.77;;;7.00;99.90;;;;;;5016250;28;20659;-65
2021/04/11 01:57:07;;;;;;;21.10;15.03;;;7.10;99.90;;;;;;5023875;28;20616;-63
2021/04/11 01:59:33;;;;;;;21.83;15.40;;;7.10;99.90;;;;;;5018583;28;20674;-65
2021/04/11 02:01:59;;;;;;;21.70;15.57;;;7.10;99.90;;;;;;5016425;28;20659;-63
2021/04/11 02:04:25;;;;;;;22.67;15.50;;;7.10;99.90;;;;;;5022850;28;21224;-64
2021/04/11 02:06:56;;;;;;;25.63;16.63;;;7.20;99.90;;;;;;5022219;28;20666;-65
2021/04/11 02:09:31;;;;;;;22.40;16.23;;;7.20;99.90;;;;;;5022253;28;20217;-64
2021/04/11 02:11:59;;;;;;;21.87;16.00;;;7.20;99.90;;;;;;5020504;28;20635;-64
2021/04/11 02:14:27;;;;;;;19.30;14.30;;;7.30;99.90;;;;;;5023957;28;20702;-64
2021/04/11 02:16:57;;;;;;;21.47;16.57;;;7.20;99.90;;;;;;5023199;28;20631;-65
2021/04/11 02:19:26;;;;;;;19.57;15.00;;;7.30;99.90;;;;;;5025454;28;20705;-64
2021/04/11 02:21:58;;;;;;;22.30;15.60;;;7.30;99.90;;;;;;5022262;28;20654;-64
2021/04/11 02:24:26;;;;;;;19.40;14.80;;;7.40;99.90;;;;;;5014709;28;20623;-63
2021/04/11 02:27:03;;;;;;;20.10;14.77;;;7.40;99.90;;;;;;5021589;28;21045;-65
2021/04/11 02:29:45;;;;;;;21.57;14.67;;;7.50;99.90;;;;;;5021678;28;20723;-62
2021/04/11 02:32:22;;;;;;;;;;;;;;;;;;;;;
2021/04/11 02:34:52;;;;;;;21.43;16.00;;;7.50;99.90;;;;;;5022268;28;20687;-62
2021/04/11 02:37:33;;;;;;;16.13;13.73;;;7.60;99.90;;;;;;5019736;28;20746;-63
2021/04/11 02:43:18;;;;;;;22.83;16.10;;;7.70;99.90;;;;;;5023832;28;20635;-64
2021/04/11 02:45:49;;;;;;;19.00;15.10;;;7.70;99.90;;;;;;5021358;28;21139;-64
2021/04/11 02:48:23;;;;;;;21.00;15.00;;;7.70;99.90;;;;;;5022831;28;20638;-64
2021/04/11 02:50:56;;;;;;;22.93;16.47;;;7.70;99.90;;;;;;5024784;28;20647;-64
2021/04/11 02:53:29;;;;;;;20.30;15.30;;;7.70;99.90;;;;;;5021138;28;20678;-63
2021/04/11 02:56:01;;;;;;;17.60;14.43;;;7.70;99.90;;;;;;5018333;28;20623;-62
2021/04/11 02:58:29;;;;;;;18.63;14.50;;;7.70;99.90;;;;;;5018376;28;20725;-65
2021/04/11 03:01:08;;;;;;;20.33;16.40;;;7.80;99.90;;;;;;5019300;28;20616;-64
2021/04/11 03:03:46;;;;;;;19.20;15.03;;;7.80;99.90;;;;;;5023641;28;20680;-65
2021/04/11 03:06:18;;;;;;;21.43;15.37;;;7.80;99.90;;;;;;5024085;28;20642;-64
2021/04/11 03:08:55;;;;;;;19.80;15.63;;;7.80;99.90;;;;;;5031090;22;20711;-65
2021/04/11 03:11:35;;;;;;;21.47;16.23;;;7.80;99.90;;;;;;4998431;28;21301;-65
2021/04/11 03:14:05;;;;;;;20.50;15.77;;;7.90;99.90;;;;;;5011408;28;20703;-64
2021/04/11 03:16:37;;;;;;;19.70;15.73;;;7.90;99.90;;;;;;5019787;28;20601;-64
2021/04/11 03:19:08;;;;;;;21.00;16.20;;;7.90;99.90;;;;;;5003862;28;20751;-64
2021/04/11 03:21:51;;;;;;;22.40;16.27;;;7.90;99.90;;;;;;5003250;28;21212;-65
2021/04/11 03:24:19;;;;;;;20.20;16.20;;;8.00;99.90;;;;;;4997255;28;20708;-65
2021/04/11 03:27:34;;;;;;;23.00;17.10;;;8.00;99.90;;;;;;4991069;28;20712;-65
2021/04/11 03:30:12;;;;;;;22.03;17.07;;;8.00;99.90;;;;;;4992051;28;20632;-65
2021/04/11 03:33:05;;;;;;;23.43;19.30;;;8.00;99.90;;;;;;4996313;28;20682;-65
2021/04/11 03:36:08;;;;;;;;;;;;;;;;;;;;;
2021/04/11 03:38:37;;;;;;;24.47;19.00;;;8.00;99.90;;;;;;4999089;28;21229;-64
2021/04/11 03:41:06;;;;;;;22.63;18.30;;;8.00;99.90;;;;;;4999984;28;20635;-65
2021/04/11 03:43:38;;;;;;;26.80;20.00;;;8.00;99.90;;;;;;5002409;28;21241;-64
2021/04/11 03:46:22;;;;;;;29.13;20.20;;;8.00;99.90;;;;;;5000670;28;20616;-65
2021/04/11 03:49:03;;;;;;;25.53;18.63;;;8.00;99.90;;;;;;4995843;28;20659;-64
2021/04/11 03:51:35;;;;;;;24.43;19.60;;;8.00;99.90;;;;;;4992081;28;20718;-65
2021/04/11 03:54:23;;;;;;;24.57;20.20;;;8.00;99.90;;;;;;4999469;28;20634;-65
2021/04/11 03:57:13;;;;;;;23.87;19.03;;;8.10;99.90;;;;;;4993322;28;20630;-64
2021/04/11 03:59:50;;;;;;;27.03;19.30;;;8.10;99.90;;;;;;5000194;28;20653;-65
2021/04/11 04:02:25;;;;;;;29.23;21.30;;;8.20;99.90;;;;;;5001423;28;20776;-65
2021/04/11 04:04:56;;;;;;;26.57;20.43;;;8.20;99.90;;;;;;5003706;28;21148;-65
2021/04/11 04:07:32;;;;;;;26.20;21.20;;;8.10;99.90;;;;;;4997440;28;20621;-64
2021/04/11 04:10:09;;;;;;;26.93;20.70;;;8.20;99.90;;;;;;5005595;28;20929;-63
2021/04/11 04:13:11;;;;;;;25.33;20.73;;;8.20;99.90;;;;;;5001509;28;20644;-65
2021/04/11 04:15:44;;;;;;;28.40;21.73;;;8.20;99.90;;;;;;5004781;28;21161;-65
2021/04/11 04:18:38;;;;;;;28.10;22.17;;;8.20;99.90;;;;;;4996513;28;20632;-64
2021/04/11 04:21:09;;;;;;;27.23;20.90;;;8.30;99.90;;;;;;5003695;28;20969;-65
2021/04/11 04:23:51;;;;;;;29.80;22.00;;;8.20;99.90;;;;;;4999552;28;20706;-65
2021/04/11 04:26:51;;;;;;;26.57;21.40;;;8.20;99.90;;;;;;5002055;28;20790;-64
2021/04/11 04:29:37;;;;;;;27.30;21.77;;;8.20;99.90;;;;;;4999713;28;21056;-66
2021/04/11 04:32:30;;;;;;;29.77;21.30;;;8.30;99.90;;;;;;5003966;28;21072;-65
2021/04/11 04:35:51;;;;;;;25.47;20.43;;;8.20;99.90;;;;;;4998382;28;20696;-65
2021/04/11 04:38:58;;;;;;;28.43;21.20;;;8.20;99.90;;;;;;4996204;28;20693;-68
2021/04/11 04:42:00;;;;;;;;;;;;;;;;;;;;;
2021/04/11 04:45:05;;;;;;;29.13;23.10;;;8.30;99.90;;;;;;5001137;28;20635;-65
2021/04/11 04:48:09;;;;;;;27.57;21.67;;;8.20;99.90;;;;;;5016280;28;20588;-63
2021/04/11 04:50:39;;;;;;;31.37;23.40;;;8.20;99.90;;;;;;5019388;28;20596;-65
2021/04/11 04:53:25;;;;;;;33.33;25.10;;;8.20;99.90;;;;;;4997129;28;20652;-63
2021/04/11 04:55:58;;;;;;;31.17;23.20;;;8.30;99.90;;;;;;4991641;28;20655;-64
2021/04/11 04:58:42;;;;;;;30.13;24.07;;;8.30;99.90;;;;;;4997574;28;20650;-64
2021/04/11 05:01:29;;;;;;;31.30;24.20;;;8.20;99.90;;;;;;5001619;28;20723;-64
2021/04/11 05:04:15;;;;;;;30.17;23.20;;;8.20;99.90;;;;;;4999025;28;20656;-64
2021/04/11 05:06:55;;;;;;;28.03;22.77;;;8.30;99.90;;;;;;4997212;28;20654;-65
2021/04/11 05:09:43;;;;;;;30.13;23.97;;;8.30;99.90;;;;;;4998331;28;20725;-66
2021/04/11 05:12:20;;;;;;;33.70;25.97;;;8.30;99.90;;;;;;4995191;28;21059;-66
2021/04/11 05:14:58;;;;;;;33.00;25.37;;;8.30;99.90;;;;;;5000832;28;20640;-63
2021/04/11 05:17:38;;;;;;;31.00;24.53;;;8.30;99.90;;;;;;5000086;28;20617;-65
2021/04/11 05:20:19;;;;;;;32.17;24.53;;;8.40;99.90;;;;;;5002720;28;20612;-63
2021/04/11 05:22:59;;;;;;;33.87;24.90;;;8.40;99.90;;;;;;5000095;28;20707;-64
2021/04/11 05:25:42;;;;;;;34.43;25.97;;;8.40;99.90;;;;;;4995531;28;20715;-64
2021/04/11 05:28:13;;;;;;;30.10;24.37;;;8.40;99.90;;;;;;5000047;28;20723;-62
2021/04/11 05:30:46;;;;;;;30.47;23.73;;;8.50;99.90;;;;;;4997548;28;20675;-64
2021/04/11 05:33:18;;;;;;;34.40;26.37;;;8.40;99.90;;;;;;5000711;28;20755;-64
2021/04/11 05:35:46;;;;;;;32.40;25.90;;;8.40;99.90;;;;;;4998928;28;20999;-62
2021/04/11 05:38:23;;;;;;;35.03;27.17;;;8.40;99.90;;;;;;4997823;28;20719;-63
2021/04/11 05:41:09;;;;;;;32.90;26.57;;;8.40;99.90;;;;;;4993904;28;20592;-64
2021/04/11 05:44:00;;;;;;;34.07;25.40;;;8.50;99.90;;;;;;4995698;28;20727;-63
2021/04/11 05:46:58;;;;;;;35.80;25.50;;;8.40;99.90;;;;;;4997051;28;20624;-63
2021/04/11 05:49:58;;;;;;;34.60;27.10;;;8.50;99.90;;;;;;4991533;28;21130;-63
2021/04/11 05:52:32;;;;;;;35.00;27.70;;;8.50;99.90;;;;;;4991719;28;20756;-63
2021/04/11 05:55:05;;;;;;;35.17;27.47;;;8.50;99.90;;;;;;5000848;28;20766;-63
2021/04/11 05:57:43;;;;;;;37.43;29.00;;;8.50;99.90;;;;;;4998313;28;20624;-64
2021/04/11 06:00:23;;;;;;;35.40;27.97;;;8.50;99.90;;;;;;5000066;28;20703;-66
2021/04/11 06:03:02;;;;;;;33.90;27.00;;;8.50;99.90;;;;;;4995418;28;20718;-62
2021/04/11 06:05:54;;;;;;;38.80;27.40;;;8.60;99.90;;;;;;4995988;28;21161;-63
2021/04/11 06:08:35;;;;;;;39.87;30.00;;;8.60;99.90;;;;;;4988146;28;20671;-62
2021/04/11 06:11:32;;;;;;;39.57;29.13;;;8.70;99.90;;;;;;4995286;28;20620;-63
2021/04/11 06:14:12;;;;;;;37.40;30.00;;;8.70;99.90;;;;;;4968681;28;20654;-64
2021/04/11 06:16:43;;;;;;;38.57;30.23;;;8.70;99.90;;;;;;4993744;28;20569;-63
2021/04/11 06:19:14;;;;;;;40.93;30.00;;;8.70;99.90;;;;;;4991305;28;20949;-64
2021/04/11 06:22:10;;;;;;;36.63;29.23;;;8.70;99.90;;;;;;4986267;28;20601;-63
2021/04/11 06:24:56;;;;;;;37.67;29.67;;;8.80;99.90;;;;;;4990660;28;20644;-63
2021/04/11 06:27:40;;;;;;;37.47;28.93;;;8.80;99.90;;;;;;5000955;28;20629;-63
2021/04/11 06:30:44;;;;;;;;;;;;;;;;;;;;;
2021/04/11 06:33:20;;;;;;;35.70;29.40;;;8.90;99.90;;;;;;4987856;28;20657;-64
2021/04/11 06:35:50;;;;;;;38.63;30.00;;;8.90;99.90;;;;;;4994570;28;20608;-64
2021/04/11 06:38:31;;;;;;;40.93;30.93;;;8.90;99.90;;;;;;4994416;28;20657;-64
2021/04/11 06:41:43;;;;;;;38.60;31.73;;;8.90;99.90;;;;;;4993665;28;20638;-66
2021/04/11 06:44:30;;;;;;;42.97;32.43;;;8.90;99.90;;;;;;5003108;28;20718;-64
2021/04/11 06:47:47;;;;;;;37.33;31.10;;;9.00;99.90;;;;;;4999680;28;20619;-63
2021/04/11 06:50:25;;;;;;;35.73;28.83;;;9.00;99.90;;;;;;4982858;28;20734;-64
2021/04/11 06:53:15;;;;;;;;;;;;;;;;;;;;;
2021/04/11 06:56:03;;;;;;;38.33;31.67;;;9.00;99.90;;;;;;4995166;28;20695;-64
2021/04/11 06:58:47;;;;;;;38.70;30.00;;;9.10;99.90;;;;;;5000585;28;20723;-64
2021/04/11 07:01:23;;;;;;;37.20;27.73;;;9.10;99.90;;;;;;5009479;28;20859;-63
2021/04/11 07:04:46;;;;;;;35.70;28.37;;;9.10;99.90;;;;;;4997721;28;20632;-64
2021/04/11 07:07:56;;;;;;;35.33;27.00;;;9.10;99.90;;;;;;4999068;28;20635;-64
2021/04/11 07:11:06;;;;;;;36.90;28.37;;;9.10;99.90;;;;;;5001719;28;20667;-63
2021/04/11 07:14:09;;;;;;;37.60;28.43;;;9.10;99.90;;;;;;4992674;28;20670;-64
2021/04/11 07:17:05;;;;;;;35.20;28.30;;;9.10;99.90;;;;;;4992270;28;20614;-65
2021/04/11 07:19:49;;;;;;;34.50;27.80;;;9.10;99.90;;;;;;4995119;28;20660;-65
2021/04/11 07:22:56;;;;;;;37.27;27.70;;;9.20;99.90;;;;;;4988996;28;20847;-64
2021/04/11 07:25:25;;;;;;;35.67;27.33;;;9.20;99.90;;;;;;4969719;28;20766;-65
2021/04/11 07:28:17;;;;;;;34.10;26.80;;;9.20;99.90;;;;;;4989083;28;20657;-64
2021/04/11 07:30:54;;;;;;;35.73;27.40;;;9.30;99.90;;;;;;4988330;28;20691;-65
2021/04/11 07:33:50;;;;;;;34.37;28.07;;;9.30;99.90;;;;;;4985115;28;22111;-67
2021/04/11 07:36:44;;;;;;;36.83;27.43;;;9.40;99.90;;;;;;4989647;28;20653;-67
2021/04/11 07:39:36;;;;;;;34.70;27.53;;;9.40;99.90;;;;;;4998242;28;20671;-67
2021/04/11 07:42:30;;;;;;;34.03;27.20;;;9.50;99.90;;;;;;5005242;28;20762;-68
2021/04/11 07:45:26;;;;;;;32.57;27.70;;;9.50;99.90;;;;;;4993299;28;20840;-67
2021/04/11 07:48:32;;;;;;;30.43;25.13;;;9.60;99.90;;;;;;4996999;28;21149;-66
2021/04/11 07:51:30;;;;;;;37.20;28.80;;;9.60;99.90;;;;;;4991185;28;20963;-68
2021/04/11 07:54:29;;;;;;;37.93;29.10;;;9.60;99.90;;;;;;4993224;28;20656;-67
2021/04/11 07:57:35;;;;;;;35.23;28.23;;;9.60;99.90;;;;;;5001068;28;20604;-67
2021/04/11 08:00:12;;;;;;;36.50;29.17;;;9.60;99.90;;;;;;5000935;28;20620;-68
2021/04/11 08:02:54;;;;;;;37.30;30.13;;;9.60;99.90;;;;;;5005161;28;20643;-68
2021/04/11 08:26:17;;;;;;;37.07;28.73;;;10.00;99.90;;;;;;4962092;28;20608;-68
2021/04/11 08:28:58;;;;;;;37.13;29.10;;;10.10;99.90;;;;;;4990486;28;20725;-66
2021/04/11 08:31:58;;;;;;;37.27;29.83;;;10.10;99.90;;;;;;4992361;28;20597;-66
2021/04/11 08:34:38;;;;;;;34.13;28.07;;;10.20;99.90;;;;;;4993086;28;20759;-68
2021/04/11 08:37:25;;;;;;;36.30;29.13;;;10.30;99.90;;;;;;4999091;28;20580;-66
2021/04/11 08:40:18;;;;;;;33.47;27.97;;;10.40;99.90;;;;;;4995679;28;20670;-66
2021/04/11 08:42:49;;;;;;;35.63;29.53;;;10.50;99.90;;;;;;4999640;28;20624;-66
2021/04/11 08:45:37;;;;;;;33.67;28.30;;;10.50;99.90;;;;;;4988787;28;20746;-66
2021/04/11 08:48:28;;;;;;;34.43;27.33;;;10.60;99.90;;;;;;4997388;28;20721;-66
2021/04/11 08:51:11;;;;;;;30.73;25.53;;;10.60;99.90;;;;;;4998262;28;20617;-66
2021/04/11 08:54:32;;;;;;;;;;;;;;;;;;;;;
2021/04/11 08:57:03;;;;;;;31.17;25.40;;;10.70;99.90;;;;;;5001255;28;20631;-66
2021/04/11 08:59:59;;;;;;;33.13;26.50;;;10.80;99.90;;;;;;4996536;28;20726;-66
2021/04/11 09:02:41;;;;;;;32.40;26.20;;;11.00;99.90;;;;;;4993458;28;20743;-63
2021/04/11 09:05:30;;;;;;;30.37;25.20;;;11.00;99.90;;;;;;4987844;28;20698;-63
2021/04/11 09:10:48;;;;;;;27.13;23.60;;;11.30;99.90;;;;;;5046218;28;20750;-58
2021/04/11 09:13:36;;;;;;;29.93;25.63;;;11.40;99.90;;;;;;5039013;28;20668;-58
2021/04/11 09:16:31;;;;;;;27.10;22.40;;;11.50;99.90;;;;;;5065624;28;20613;-58
2021/04/11 09:19:24;;;;;;;26.30;22.00;;;11.60;99.90;;;;;;5033856;28;20662;-59
2021/04/11 09:22:02;;;;;;;24.10;21.30;;;11.60;99.90;;;;;;5046799;28;20638;-58
2021/04/11 09:24:33;;;;;;;24.53;21.93;;;11.60;99.90;;;;;;5025486;28;20793;-57
2021/04/11 09:48:03;;;;;;;11.43;10.33;;;11.80;99.90;;;;;;5007766;28;20929;-59
2021/04/11 09:50:51;;;;;;;11.63;10.53;;;11.80;99.90;;;;;;4999629;28;20704;-60
2021/04/11 09:53:38;;;;;;;10.70;9.60;;;12.00;99.90;;;;;;5027397;28;20709;-59
2021/04/11 09:56:17;;;;;;;10.73;9.43;;;12.00;99.90;;;;;;5017625;28;21236;-60
2021/04/11 09:58:51;;;;;;;9.93;9.03;;;12.00;99.90;;;;;;5033505;28;20706;-59
2021/04/11 10:01:47;;;;;;;10.33;9.43;;;12.00;99.90;;;;;;5035037;28;20639;-63
2021/04/11 10:04:46;;;;;;;9.50;8.60;;;11.90;99.90;;;;;;4962552;28;21459;-59
2021/04/11 10:07:36;;;;;;;10.33;9.43;;;12.00;99.90;;;;;;5011240;28;20623;-57
2021/04/11 10:10:18;;;;;;;10.30;9.30;;;12.00;99.90;;;;;;4995219;28;20675;-58
2021/04/11 10:12:59;;;;;;;12.23;11.13;;;11.90;99.90;;;;;;5011332;28;21045;-60
2021/04/11 10:15:42;;;;;;;13.50;12.20;;;11.80;99.90;;;;;;5006038;28;20746;-60
2021/04/11 10:18:31;;;;;;;14.23;12.90;;;11.70;99.90;;;;;;5013300;28;20639;-58
2021/04/11 10:21:19;;;;;;;13.30;12.00;;;11.80;99.90;;;;;;5005648;28;20702;-59
2021/04/11 10:23:54;;;;;;;14.73;13.20;;;11.70;99.90;;;;;;5031531;28;20639;-58
2021/04/11 10:26:37;;;;;;;14.27;12.87;;;11.70;99.90;;;;;;5023923;28;21268;-59
2021/04/11 10:29:12;;;;;;;12.70;11.40;;;11.60;99.90;;;;;;5035673;28;20800;-60
2021/04/11 10:31:50;;;;;;;12.20;11.00;;;11.80;99.90;;;;;;5034538;28;20776;-59
2021/04/11 10:34:43;;;;;;;12.43;11.13;;;11.80;99.90;;;;;;5033706;28;20622;-59
2021/04/11 10:37:26;;;;;;;12.33;11.13;;;11.70;99.90;;;;;;5036086;28;21284;-60
2021/04/11 10:40:25;;;;;;;12.00;10.80;;;11.80;99.90;;;;;;5030433;28;21402;-61
2021/04/11 10:43:11;;;;;;;10.97;9.97;;;11.70;99.90;;;;;;5045000;28;20642;-59
2021/04/11 10:45:55;;;;;;;9.40;8.50;;;11.70;99.90;;;;;;5042708;28;20735;-60
2021/04/11 10:48:40;;;;;;;9.43;8.63;;;11.60;99.90;;;;;;5021405;28;20673;-59
2021/04/11 10:51:08;;;;;;;8.50;7.80;;;11.60;99.90;;;;;;5022780;28;20634;-58
2021/04/11 10:54:07;;;;;;;7.93;7.13;;;11.50;99.90;;;;;;5015893;28;22566;-60
2021/04/11 10:56:57;;;;;;;8.50;7.80;;;11.40;99.90;;;;;;5000921;28;20623;-58
2021/04/11 10:59:35;;;;;;;8.50;7.60;;;11.30;99.90;;;;;;5007521;28;20679;-63
2021/04/11 11:02:19;;;;;;;9.03;8.23;;;11.40;99.90;;;;;;5009172;28;20654;-61
2021/04/11 11:05:01;;;;;;;8.37;7.67;;;11.30;99.90;;;;;;5009751;28;20620;-64
2021/04/11 11:07:53;;;;;;;9.80;8.83;;;11.20;99.90;;;;;;5012508;28;21166;-59
2021/04/11 11:10:31;;;;;;;10.10;9.10;;;11.10;99.90;;;;;;5010892;28;20666;-59
2021/04/11 11:13:21;;;;;;;10.73;9.73;;;11.10;99.90;;;;;;5010536;28;20641;-63
2021/04/11 11:16:12;;;;;;;10.70;9.70;;;11.10;99.90;;;;;;5004898;28;20949;-66
2021/04/11 11:19:08;;;;;;;11.20;10.10;;;11.00;99.90;;;;;;5013819;28;20789;-62
2021/04/11 11:22:07;;;;;;;10.73;9.63;;;11.00;99.90;;;;;;5002816;28;20658;-58
2021/04/11 11:24:59;;;;;;;11.37;10.20;;;10.90;99.90;;;;;;5022775;28;20587;-60
2021/04/11 11:27:49;;;;;;;11.47;10.27;;;10.80;99.90;;;;;;5019029;28;21186;-59
2021/04/11 11:30:49;;;;;;;10.80;9.70;;;10.70;99.90;;;;;;5025335;28;20611;-59
2021/04/11 11:33:23;;;;;;;9.97;9.00;;;10.60;99.90;;;;;;5022434;28;20725;-61
2021/04/11 11:36:27;;;;;;;10.63;9.53;;;10.50;99.90;;;;;;5020909;28;20678;-62
2021/04/11 11:39:23;;;;;;;10.53;9.37;;;10.40;99.90;;;;;;5024673;28;20630;-60
2021/04/11 11:41:56;;;;;;;9.83;8.83;;;10.30;99.90;;;;;;5021223;28;20632;-61
2021/04/11 11:44:30;;;;;;;11.50;9.07;;;10.30;99.90;;;;;;5016910;28;21290;-59
2021/04/11 11:47:11;;;;;;;9.63;8.03;;;10.10;99.90;;;;;;5023220;28;20635;-58
2021/04/11 11:50:05;;;;;;;8.83;7.93;;;10.10;99.90;;;;;;5020113;28;20700;-59
2021/04/11 11:52:40;;;;;;;9.20;8.30;;;10.00;99.90;;;;;;5026648;28;20683;-59
2021/04/11 11:55:16;;;;;;;8.60;7.70;;;9.90;99.90;;;;;;5052518;28;20614;-60
2021/04/11 11:58:04;;;;;;;8.50;7.60;;;9.80;99.90;;;;;;5051673;28;20601;-58
2021/04/11 12:00:35;;;;;;;8.80;7.53;;;9.70;99.90;;;;;;5048673;28;20677;-59
2021/04/11 12:03:23;;;;;;;8.10;7.30;;;9.60;99.90;;;;;;5051783;28;20666;-59
2021/04/11 12:05:57;;;;;;;7.50;6.80;;;9.50;99.90;;;;;;5048561;28;20676;-59
2021/04/11 12:09:01;;;;;;;7.60;6.90;;;9.50;99.90;;;;;;5053598;28;21026;-59
2021/04/11 12:11:55;;;;;;;7.70;7.00;;;9.40;99.90;;;;;;5051277;28;20646;-58
2021/04/11 12:14:31;;;;;;;6.90;6.20;;;9.30;99.90;;;;;;5032694;28;20658;-59
2021/04/11 12:17:17;;;;;;;5.97;5.23;;;9.20;99.90;;;;;;5045512;28;20614;-58
2021/04/11 12:20:12;;;;;;;6.53;5.93;;;9.20;99.90;;;;;;5046689;28;20696;-59
2021/04/11 12:23:10;;;;;;;5.97;5.47;;;9.20;99.90;;;;;;5051194;28;20654;-59
2021/04/11 12:25:37;;;;;;;6.57;6.00;;;9.10;99.90;;;;;;5020109;28;20987;-59
2021/04/11 12:28:16;;;;;;;6.40;5.80;;;9.10;99.90;;;;;;5036486;28;20642;-59
2021/04/11 12:30:42;;;;;;;5.57;5.07;;;8.90;99.90;;;;;;5049691;28;20605;-59
2021/04/11 12:33:32;;;;;;;6.37;5.63;;;8.90;99.90;;;;;;5051857;28;20642;-59
2021/04/11 12:36:18;;;;;;;5.47;4.93;;;8.80;99.90;;;;;;5037291;28;20630;-58
2021/04/11 12:38:57;;;;;;;4.90;4.50;;;9.00;99.90;;;;;;5051976;28;20630;-60
2021/04/11 12:41:46;;;;;;;5.80;5.30;;;9.10;99.90;;;;;;5049621;28;20606;-60
2021/04/11 12:44:18;;;;;;;5.17;4.67;;;9.00;99.90;;;;;;5048325;28;20614;-59
2021/04/11 12:47:03;;;;;;;5.47;4.97;;;9.00;99.90;;;;;;5048387;28;20699;-58
2021/04/11 12:49:40;;;;;;;4.50;4.10;;;9.00;99.90;;;;;;5032015;28;21880;-58
2021/04/11 12:52:34;;;;;;;4.23;3.90;;;8.90;99.90;;;;;;5032186;28;20634;-58
2021/04/11 12:55:21;;;;;;;4.20;3.80;;;8.80;99.90;;;;;;5044857;28;20627;-60
2021/04/11 12:58:03;;;;;;;4.47;4.07;;;8.80;99.90;;;;;;5047664;28;20625;-58
2021/04/11 13:00:44;;;;;;;5.40;4.40;;;8.80;99.90;;;;;;5046958;28;20624;-58
2021/04/11 13:03:16;;;;;;;4.10;3.80;;;8.70;99.90;;;;;;5018660;28;20666;-59
2021/04/11 13:05:51;;;;;;;4.20;3.80;;;8.70;99.90;;;;;;5011202;28;20623;-59
2021/04/11 13:08:45;;;;;;;4.20;3.90;;;8.70;99.90;;;;;;5000006;28;20650;-62
2021/04/11 13:11:21;;;;;;;3.80;3.50;;;8.60;99.90;;;;;;5015501;28;20614;-59
2021/04/11 13:14:06;;;;;;;3.70;3.40;;;8.50;99.90;;;;;;5019193;28;20761;-58
2021/04/11 13:16:40;;;;;;;4.13;3.73;;;8.40;99.90;;;;;;5021178;28;20593;-58
2021/04/11 13:19:13;;;;;;;4.13;3.83;;;8.40;99.90;;;;;;5016093;28;21033;-57
2021/04/11 13:21:57;;;;;;;4.50;4.10;;;8.50;99.90;;;;;;5015665;28;20611;-59
2021/04/11 13:24:35;;;;;;;5.67;5.00;;;8.50;99.90;;;;;;5035483;28;20614;-61
2021/04/11 13:27:34;;;;;;;7.10;6.50;;;8.50;99.90;;;;;;5039843;28;20638;-62
2021/04/11 13:30:26;;;;;;;6.20;5.70;;;8.40;99.90;;;;;;5045308;28;21291;-57
2021/04/11 13:33:10;;;;;;;5.97;5.20;;;8.40;99.90;;;;;;4992303;28;20667;-59
2021/04/11 13:35:54;;;;;;;5.83;5.30;;;8.20;99.90;;;;;;5012908;28;20612;-56
2021/04/11 13:38:37;;;;;;;5.50;5.10;;;8.20;99.90;;;;;;5013783;28;20650;-57
2021/04/11 13:41:14;;;;;;;5.13;4.73;;;8.10;99.90;;;;;;5015497;28;20603;-59
2021/04/11 13:44:21;;;;;;;4.47;4.17;;;8.10;99.90;;;;;;5033579;28;20646;-59
2021/04/11 13:46:54;;;;;;;3.80;3.50;;;7.90;99.90;;;;;;5036094;28;22448;-57
2021/04/11 13:49:25;;;;;;;3.57;3.37;;;7.90;99.90;;;;;;5033936;28;20723;-59
2021/04/11 13:51:59;;;;;;;3.70;3.50;;;7.80;99.90;;;;;;5029409;28;20643;-62
2021/04/11 13:54:31;;;;;;;3.77;3.47;;;7.70;99.90;;;;;;5012133;28;20651;-60
2021/04/11 13:57:20;;;;;;;4.30;4.00;;;7.70;99.90;;;;;;5015629;28;20980;-60
2021/04/11 14:00:16;;;;;;;4.87;4.50;;;7.70;99.90;;;;;;4988397;28;21127;-61
2021/04/11 14:02:48;;;;;;;4.03;3.63;;;7.70;99.90;;;;;;5004189;28;20650;-64
2021/04/11 14:05:19;;;;;;;3.50;3.20;;;7.80;99.90;;;;;;5027539;28;20612;-64
2021/04/11 14:07:45;;;;;;;3.43;2.90;;;7.80;99.90;;;;;;5031046;28;20639;-64
2021/04/11 14:10:39;;;;;;;4.60;3.03;;;7.70;99.90;;;;;;5031082;28;21212;-60
2021/04/11 14:13:31;;;;;;;4.03;3.70;;;7.80;99.90;;;;;;5010684;28;20251;-62
2021/04/11 14:16:08;;;;;;;4.10;3.67;;;7.80;99.90;;;;;;5011934;28;20615;-63
2021/04/11 14:18:46;;;;;;;4.17;3.40;;;7.70;99.90;;;;;;5029222;28;20643;-64
2021/04/11 14:21:15;;;;;;;3.60;3.40;;;7.60;99.90;;;;;;5025463;28;20993;-62
2021/04/11 14:23:55;;;;;;;2.93;2.70;;;7.50;99.90;;;;;;5033348;28;20981;-61
2021/04/11 14:26:38;;;;;;;2.50;2.30;;;7.60;99.90;;;;;;5028340;28;20662;-63
2021/04/11 14:29:07;;;;;;;2.87;2.67;;;7.50;99.90;;;;;;5007131;28;20720;-63
2021/04/11 14:31:38;;;;;;;2.77;2.50;;;7.60;99.90;;;;;;5029166;28;20615;-65
2021/04/11 14:34:16;;;;;;;2.50;2.30;;;7.60;99.90;;;;;;5006242;28;21471;-61
2021/04/11 14:36:49;;;;;;;3.03;2.30;;;7.60;99.90;;;;;;5019962;28;20634;-60
2021/04/11 14:39:41;;;;;;;3.67;2.70;;;7.50;99.90;;;;;;5024532;28;20655;-59
2021/04/11 14:42:18;;;;;;;2.90;2.70;;;7.40;99.90;;;;;;5009515;28;20647;-59
2021/04/11 14:44:56;;;;;;;2.50;2.30;;;7.30;99.90;;;;;;5020801;28;20995;-60
2021/04/11 14:47:50;;;;;;;2.93;2.60;;;7.20;99.90;;;;;;5024225;28;20639;-60